• Join FlightAware (Why Join?)
  • Login
  • US Flag 
06:12AM EST


 

Airport Tracker/Info


-or-


 

Live Flight TrackerFlight Track Log ✈ ASQ4577 ✈ 10-May-2013 ✈ KCLE - KALB

Flight Track Log - Related Links

Times and Time Zones

All times are in EDT time to prevent confusion due to time zone crossing. See the ASQ4577 flight status page for this flight to view local times or setup timezone preferences in your user account.

Time Position Orientation Groundspeed Altitude Reporting Facility
EDT Latitude Longitude Course Direction KTS MPH feet Rate Location/Type
07:59PM 41.3939 -81.8786 269° West 154 177 1,900  Level Cleveland Center
07:59PM 41.3936 -81.9089 269° West 183 211 3,200 2,040 Climbing Cleveland Center
08:00PM 41.4142 -81.9369 314° West 213 245 4,400 1,980 Climbing Cleveland Center
08:00PM 41.4411 -81.9403 355° North 212 244 5,200 1,680 Climbing Cleveland Center
08:01PM 41.4997 -81.9306 North 252 290 6,800 1,860 Climbing Cleveland Center
08:02PM 41.5669 -81.8764 31° Northeast 266 306 9,000 1,860 Climbing Cleveland Center
08:03PM 41.6386 -81.8167 32° Northeast 295 339 10,600 1,080 Climbing Cleveland Center
08:04PM 41.7289 -81.7406 32° Northeast 329 379 11,200 600 Climbing Cleveland Center
08:05PM 41.8194 -81.6614 33° Northeast 369 425 11,800 360 Climbing Cleveland Center
08:06PM 41.9139 -81.5792 33° Northeast 390 449 12,000 600 Climbing Cleveland Center
08:07PM 42.0164 -81.5306 19° North 389 448 13,000 1,500 Climbing Cleveland Center
08:08PM 42.1169 -81.4872 18° North 389 448 15,000 1,980 Climbing Cleveland Center
08:09PM 42.2131 -81.4439 18° North 378 435 17,000 1,860 Climbing Cleveland Center
08:10PM 42.3072 -81.3889 23° Northeast 367 422 18,800 1,200 Climbing Cleveland Center
08:11PM 42.3933 -81.3086 35° Northeast 372 428 19,500 780 Climbing Cleveland Center
08:12PM 42.4233 -81.1822 72° East 370 426 20,400 960 Climbing Cleveland Center
08:13PM 42.4344 -81.0192 85° East 385 443 21,500 1,080 Climbing Cleveland Center
08:14PM 42.4472 -80.8617 84° East 410 472 22,600 1,020 Climbing Cleveland Center
08:15PM 42.4581 -80.7014 85° East 427 491 23,600 1,020 Climbing Cleveland Center
08:16PM 42.4706 -80.5439 84° East 421 484 24,700 1,020 Climbing Cleveland Center
08:17PM 42.4808 -80.3778 85° East 426 490 25,700 1,020 Climbing Cleveland Center
08:18PM 42.4908 -80.2031 86° East 426 490 26,800 600 Climbing Cleveland Center
08:19PM 42.5028 -80.0397 84° East 426 490 27,000 60 Climbing Cleveland Center
08:20PM 42.5164 -79.8817 83° East 438 504 27,000  Level Cleveland Center
08:21PM 42.5278 -79.7097 85° East 452 520 27,000  Level Cleveland Center
08:22PM 42.5389 -79.5292 85° East 468 539 27,000  Level Cleveland Center
08:23PM 42.5517 -79.3486 84° East 473 544 27,000  Level Cleveland Center
08:24PM 42.5600 -79.1653 86° East 479 551 27,000  Level Cleveland Center
08:25PM 42.5722 -78.9844 85° East 479 551 27,000  Level Cleveland Center
08:26PM 42.5819 -78.8011 86° East 479 551 27,000  Level Cleveland Center
08:27PM 42.5914 -78.6175 86° East 479 551 27,000  Level Cleveland Center
08:28PM 42.6028 -78.4367 85° East 479 551 27,000  Level Cleveland Center
08:29PM 42.6097 -78.2500 87° East 479 551 27,000  Level Cleveland Center
08:30PM 42.6203 -78.0664 85° East 479 551 27,000  Level Cleveland Center
08:31PM 42.6286 -77.8797 86° East 479 551 27,000  Level Cleveland Center
08:32PM 42.6367 -77.6958 87° East 479 551 27,000  Level Cleveland Center
08:33PM 42.6467 -77.5119 86° East 484 557 27,000  Level Cleveland Center
08:35PM 42.6500 -77.1333 89° East 500 575 27,000  Level Toronto Center
08:36PM 42.6625 -77.1222 33° Northeast 484 557 27,000  Level Boston Center
08:37PM 42.6697 -76.9392 87° East 484 557 27,000  Level Boston Center
08:38PM 42.6767 -76.7644 87° East 473 544 27,000  Level Boston Center
08:39PM 42.6833 -76.5811 87° East 473 544 27,000  Level Boston Center
08:40PM 42.6900 -76.3981 87° East 478 550 27,000  Level Boston Center
08:41PM 42.6989 -76.1950 87° East 478 550 27,000 -60 Level Boston Center
08:42PM 42.7025 -76.0172 88° East 472 543 26,900 -60 Descending Boston Center
08:43PM 42.7078 -75.8508 87° East 460 529 26,900  Level Boston Center
08:44PM 42.7128 -75.6731 88° East 460 529 27,000 -720 Climbing Boston Center
08:45PM 42.7158 -75.4950 89° East 460 529 25,500 -2,100 Descending Boston Center
08:46PM 42.7225 -75.3172 87° East 460 529 22,800 -2,640 Descending Boston Center
08:47PM 42.7247 -75.1450 89° East 460 529 20,300 -2,460 Descending Boston Center
08:48PM 42.7283 -74.9811 88° East 455 524 17,900 -2,400 Descending Boston Center
08:49PM 42.7319 -74.8200 88° East 433 498 15,600 -2,340 Descending Boston Center
08:49PM 42.7328 -74.7750 89° East 400 460 14,800 -2,400 Descending Boston Center
08:50PM 42.7350 -74.6733 88° East 399 459 13,200 -2,220 Descending Boston Center
08:50PM 42.7372 -74.5461 89° East 391 450 11,500 -1,620 Descending Boston Center
08:51PM 42.7397 -74.4133 88° East 348 400 10,300 -1,440 Descending Boston Center
08:53PM 42.7419 -74.2750 89° East 326 375 8,500 -1,680 Descending Boston Center
08:54PM 42.7458 -74.1589 87° East 302 348 6,800 -1,860 Descending Boston Center
08:54PM 42.7617 -74.0775 75° East 281 323 5,200 -1,860 Descending Boston Center
08:55PM 42.7839 -73.9875 71° East 248 285 3,500 -1,380 Descending Boston Center
08:56PM 42.8036 -73.9117 70° East 204 235 2,500 -900 Descending Boston Center
08:57PM 42.8147 -73.8411 78° East 170 196 1,800 -840 Descending Boston Center
08:58PM 42.7881 -73.8094 139° Southeast 105 121 800 -1,020 Descending Boston Center